• Join FlightAware (Why Join?)
  • Login
  • US Flag 
12:44AM EDT


 

Airport Tracker/Info


-or-


 

Live Flight TrackerFlight Track Log ✈ AWE3202 ✈ 20-Jun-2013 ✈ KJAX - KDCA

Flight Track Log - Related Links

Times and Time Zones

All times are in EDT time to prevent confusion due to time zone crossing. See the AWE3202 flight status page for this flight to view local times or setup timezone preferences in your user account.

Time Position Orientation Groundspeed Altitude Reporting Facility
EDT Latitude Longitude Course Direction KTS MPH feet Rate Location/Type
06:34PM 30.4717 -81.6731 338° Northwest 149 171 700  Level Jacksonville Center
06:35PM 30.4986 -81.6511 35° Northeast 208 239 2,000 1,980 Climbing Jacksonville Center
06:36PM 30.5614 -81.6839 336° Northwest 255 293 4,600 2,880 Climbing Jacksonville Center
06:37PM 30.7739 -81.8137 334° Northwest  Level FlightAware Approximate
06:38PM 30.8678 -81.8671 342° North  Level FlightAware Approximate
06:38PM 30.6453 -81.7264 336° Northwest 291 335 8,500  Level Jacksonville Center
06:39PM 30.9674 -81.9044 342° North  Level FlightAware Approximate
06:39PM 30.7167 -81.7667 334° Northwest 296 341 10,800  Level Jacksonville Center
06:40PM 31.0616 -81.9540 338° Northwest  Level FlightAware Approximate
06:40PM 30.8006 -81.8114 335° Northwest 302 348 13,400  Level Jacksonville Center
06:41PM 30.8906 -81.8347 347° North 319 367 15,700 2,220 Climbing Jacksonville Center
06:42PM 30.9867 -81.8336 North 336 387 17,900 2,040 Climbing Jacksonville Center
06:43PM 31.0889 -81.8228 North 343 395 19,800 1,800 Climbing Jacksonville Center
06:44PM 31.1911 -81.8094 North 368 423 21,600 1,680 Climbing Jacksonville Center
06:45PM 31.2994 -81.7936 North 378 435 23,200 1,440 Climbing Jacksonville Center
06:46PM 31.4058 -81.7803 North 388 447 24,500 1,380 Climbing Jacksonville Center
06:47PM 31.5103 -81.7692 North 406 467 26,000 1,200 Climbing Jacksonville Center
06:48PM 31.6333 -81.7800 356° North 401 461 27,000 480 Climbing Jacksonville Center
06:49PM 31.7442 -81.8006 351° North 406 467 27,000  Level Jacksonville Center
06:50PM 31.8425 -81.8189 351° North 406 467 27,000 480 Level Jacksonville Center
06:51PM 31.9658 -81.8419 351° North 406 467 28,000 1,020 Climbing Jacksonville Center
06:53PM 32.2119 -81.8858 351° North 427 491 30,300 1,020 Climbing Atlanta Center
06:54PM 32.3250 -81.9078 351° North 422 486 31,200 1,020 Climbing Atlanta Center
06:55PM 32.4444 -81.9294 351° North 422 486 32,400 1,200 Climbing Atlanta Center
06:56PM 32.5575 -81.9467 353° North 422 486 33,700 1,140 Climbing Atlanta Center
06:57PM 32.6728 -81.9708 350° North 422 486 34,700 600 Climbing Atlanta Center
06:58PM 32.7858 -81.9906 352° North 417 480 35,000 60 Climbing Atlanta Center
06:59PM 32.9672 -82.0261 351° North 431 496 35,000  Level Jacksonville Center
07:00PM 33.0803 -82.0472 351° North 420 483 35,000  Level Jacksonville Center
07:01PM 33.1992 -82.0608 355° North 420 483 35,000  Level Jacksonville Center
07:02PM 33.3031 -82.0003 26° Northeast 399 459 35,000  Level Jacksonville Center
07:03PM 33.3942 -81.8775 48° Northeast 398 458 35,000  Level Jacksonville Center
07:04PM 33.4808 -81.7719 45° Northeast 422 486 35,000  Level Jacksonville Center
07:05PM 33.5656 -81.6661 46° Northeast 427 491 35,000  Level Jacksonville Center
07:06PM 33.6478 -81.5603 47° Northeast 432 497 35,000  Level Jacksonville Center
07:07PM 33.7322 -81.4567 46° Northeast 432 497 35,000  Level Jacksonville Center
07:08PM 33.8167 -81.3503 46° Northeast 432 497 35,000  Level Jacksonville Center
07:09PM 33.9008 -81.2436 46° Northeast 432 497 35,000  Level Jacksonville Center
07:10PM 33.9869 -81.1369 46° Northeast 437 503 35,000  Level Jacksonville Center
07:11PM 34.0731 -81.0297 46° Northeast 431 496 35,000  Level Jacksonville Center
07:12PM 34.1550 -80.9253 47° Northeast 431 496 35,000  Level Jacksonville Center
07:13PM 34.2386 -80.8178 47° Northeast 431 496 35,000  Level Jacksonville Center
07:16PM 34.4161 -80.5814 48° Northeast 438 504 35,000  Level Washington Center
07:17PM 34.4911 -80.4853 47° Northeast 443 510 35,000  Level Washington Center
07:17PM 34.5769 -80.3694 48° Northeast 450 518 35,000  Level Washington Center
07:19PM 34.6606 -80.2606 47° Northeast 450 518 35,000  Level Washington Center
07:19PM 34.7464 -80.1492 47° Northeast 450 518 35,000  Level Washington Center
07:21PM 34.8297 -80.0400 47° Northeast 451 519 35,000  Level Washington Center
07:22PM 34.9261 -79.9161 46° Northeast 451 519 35,000  Level Washington Center
07:23PM 35.0114 -79.8042 47° Northeast 451 519 35,000  Level Washington Center
07:24PM 35.0967 -79.6917 47° Northeast 451 519 35,000  Level Washington Center
07:24PM 35.1819 -79.5817 46° Northeast 451 519 35,000  Level Washington Center
07:26PM 35.2708 -79.4794 43° Northeast 445 512 35,000  Level Washington Center
07:27PM 35.3572 -79.3842 42° Northeast 445 512 35,000  Level Washington Center
07:27PM 35.4569 -79.2692 43° Northeast 445 512 35,000  Level Washington Center
07:29PM 35.5478 -79.1661 43° Northeast 440 506 35,000  Level Washington Center
07:30PM 35.6364 -79.0625 44° Northeast 435 501 35,000  Level Washington Center
07:31PM 35.7247 -78.9617 43° Northeast 435 501 35,000  Level Washington Center
07:31PM 35.8153 -78.8553 44° Northeast 435 501 35,000  Level Washington Center
07:33PM 35.8969 -78.7664 41° Northeast 435 501 35,000 -780 Level Washington Center
07:34PM 36.0017 -78.6756 35° Northeast 441 507 33,500 -1,980 Descending Washington Center
07:35PM 36.1019 -78.5869 36° Northeast 441 507 31,100 -2,400 Descending Washington Center
07:36PM 36.2022 -78.4956 36° Northeast 447 514 28,700 -2,100 Descending Washington Center
07:37PM 36.3003 -78.4089 35° Northeast 440 506 27,000 -900 Descending Washington Center
07:38PM 36.3961 -78.3272 34° Northeast 435 501 27,000  Level Washington Center
07:38PM 36.4919 -78.2403 36° Northeast 430 495 27,000 -60 Level Washington Center
07:39PM 36.5878 -78.1556 35° Northeast 425 489 26,900 -600 Descending Washington Center
07:41PM 36.6878 -78.0603 37° Northeast 413 475 25,900 -900 Descending Washington Center
07:42PM 36.7811 -77.9778 35° Northeast 413 475 25,100 -900 Descending Washington Center
07:42PM 36.8683 -77.9000 35° Northeast 403 464 24,200 -900 Descending Washington Center
07:44PM 36.9553 -77.8194 37° Northeast 398 458 23,400 -900 Descending Washington Center
07:45PM 37.0444 -77.7386 36° Northeast 392 451 22,500 -720 Descending Washington Center
07:46PM 37.1292 -77.6628 36° Northeast 392 451 22,000 -300 Descending Washington Center
07:47PM 37.2261 -77.6133 22° Northeast 379 436 22,000  Level Washington Center
07:47PM 37.3289 -77.5689 19° North 374 430 22,000  Level Washington Center
07:49PM 37.4297 -77.5297 17° North 374 430 22,000  Level Washington Center
07:50PM 37.5347 -77.4828 20° North 374 430 22,000  Level Washington Center
07:51PM 37.6481 -77.4356 18° North 391 450 22,000 -720 Level Washington Center
07:52PM 37.7636 -77.3858 19° North 418 481 20,600 -1,800 Descending Washington Center
07:53PM 37.8728 -77.3386 19° North 424 488 18,400 -2,040 Descending Washington Center
07:54PM 37.9778 -77.2908 20° North 418 481 16,500 -2,220 Descending Washington Center
07:54PM 38.0825 -77.2511 17° North 406 467 14,100 -2,220 Descending Washington Center
07:56PM 38.1789 -77.2083 19° North 379 436 12,200 -1,980 Descending Washington Center
07:57PM 38.2736 -77.1628 21° North 366 421 10,200 -1,140 Descending Washington Center
07:58PM 38.3550 -77.1458 North 350 403 10,000 -120 Descending Washington Center
07:59PM 38.4469 -77.1267 North 336 387 10,000  Level Washington Center
08:00PM 38.5475 -77.1047 10° North 341 392 10,000  Level Washington Center
08:01PM 38.6667 -77.0833 North 313 360 10,000 -1,200 Level Potomac TRACON
08:02PM 38.7333 -77.0667 11° North 285 328 7,700 -1,920 Descending Potomac TRACON
08:03PM 38.8000 -77.0833 349° North 262 302 6,200 -900 Descending Potomac TRACON
08:04PM 38.8500 -77.1500 314° West 268 308 6,000 -120 Descending Potomac TRACON
08:05PM 38.9000 -77.2167 314° West 238 274 6,000 -240 Level Potomac TRACON
08:06PM 38.9500 -77.2667 322° Northwest 188 216 5,600 -960 Descending Potomac TRACON
08:07PM 38.9833 -77.2333 38° Northeast 185 213 4,100 -1,380 Descending Potomac TRACON
08:08PM 38.9833 -77.1833 90° East 180 207 2,900 -1,140 Descending Potomac TRACON
08:09PM 38.9500 -77.1333 131° Southeast 166 191 1,900 -1,020 Descending Potomac TRACON